createdAt,value
2023-02-12T00:00:34.623Z,1.03
2023-02-12T00:03:01.624Z,1.14
2023-02-12T00:05:28.916Z,1.09
2023-02-12T00:07:56.045Z,1.09
2023-02-12T00:10:23.345Z,1.12
2023-02-12T00:12:50.429Z,1.03
2023-02-12T00:15:17.566Z,0.98
2023-02-12T00:17:44.574Z,0.93
2023-02-12T00:20:12.079Z,0.91
2023-02-12T00:22:39.205Z,0.83
2023-02-12T00:25:06.464Z,0.86
2023-02-12T00:27:34.172Z,0.40
2023-02-12T00:30:01.505Z,0.81
2023-02-12T00:32:28.625Z,0.61
2023-02-12T00:34:55.660Z,0.70
2023-02-12T00:37:22.673Z,0.37
2023-02-12T00:39:49.660Z,0.60
2023-02-12T00:42:16.695Z,0.08
2023-02-12T00:44:43.801Z,0.07
2023-02-12T00:47:10.835Z,0.43
2023-02-12T00:49:37.891Z,0.36
2023-02-12T00:52:05.627Z,0.17
2023-02-12T00:54:33.056Z,0.04
2023-02-12T00:57:00.101Z,-0.16
2023-02-12T00:59:30.307Z,-0.05
2023-02-12T01:01:57.548Z,-0.13
2023-02-12T01:04:24.863Z,-0.07
2023-02-12T01:06:51.906Z,-0.19
2023-02-12T01:09:19.536Z,-0.40
2023-02-12T01:11:48.560Z,-0.33
2023-02-12T01:14:16.337Z,-0.30
2023-02-12T01:16:43.476Z,-0.33
2023-02-12T01:19:12.607Z,-0.38
2023-02-12T01:21:39.775Z,-0.57
2023-02-12T01:24:07.717Z,-0.45
2023-02-12T01:26:34.807Z,-0.48
2023-02-12T01:29:04.643Z,-0.60
2023-02-12T01:31:35.951Z,-0.60
2023-02-12T01:34:04.309Z,-0.63
2023-02-12T01:36:33.796Z,-0.65
2023-02-12T01:39:03.035Z,-0.68
2023-02-12T01:41:33.823Z,-0.70
2023-02-12T01:44:21.276Z,-1.36
2023-02-12T01:46:59.872Z,-0.73
2023-02-12T01:49:30.775Z,-0.81
2023-02-12T01:52:30.600Z,-0.86
2023-02-12T01:55:04.291Z,-0.85
2023-02-12T01:57:34.728Z,-0.88
2023-02-12T02:00:06.037Z,-0.92
2023-02-12T02:02:45.233Z,-1.02
2023-02-12T02:05:21.477Z,-0.97
2023-02-12T02:07:49.658Z,-1.03
2023-02-12T02:10:17.256Z,-1.29
2023-02-12T02:13:02.664Z,-1.07
2023-02-12T02:15:32.180Z,-1.29
2023-02-12T02:18:12.334Z,-1.58
2023-02-12T02:21:02.836Z,-1.11
2023-02-12T02:23:51.680Z,-1.18
2023-02-12T02:27:00.372Z,-1.15
2023-02-12T02:29:45.695Z,-1.14
2023-02-12T02:32:42.521Z,-1.19
2023-02-12T02:35:31.680Z,-1.27
2023-02-12T02:38:15.808Z,-1.27
2023-02-12T02:40:59.277Z,-1.29
2023-02-12T02:43:32.376Z,-1.36
2023-02-12T02:46:07.433Z,-1.33
2023-02-12T02:48:40.225Z,-1.54
2023-02-12T02:51:12.254Z,-1.49
2023-02-12T02:53:44.480Z,-1.45
2023-02-12T02:56:16.084Z,-1.45
2023-02-12T02:58:57.084Z,-1.46
2023-02-12T03:01:31.368Z,-1.44
2023-02-12T03:04:21.469Z,-1.42
2023-02-12T03:06:52.836Z,-1.57
2023-02-12T03:09:27.650Z,-1.50
2023-02-12T03:12:00.523Z,-1.47
2023-02-12T03:14:31.956Z,-1.51
2023-02-12T03:17:09.896Z,-1.63
2023-02-12T03:19:55.295Z,-1.63
2023-02-12T03:22:29.592Z,-1.56
2023-02-12T03:25:05.824Z,-1.56
2023-02-12T03:27:38.580Z,-1.68
2023-02-12T03:30:07.816Z,-1.60
2023-02-12T03:32:52.860Z,-1.58
2023-02-12T03:35:31.961Z,-1.60
2023-02-12T03:38:09.360Z,-1.62
2023-02-12T03:40:47.570Z,-1.66
2023-02-12T03:43:26.028Z,-1.61
2023-02-12T03:46:00.733Z,-1.80
2023-02-12T03:49:00.128Z,-1.60
2023-02-12T03:51:38.368Z,-1.83
2023-02-12T03:54:07.658Z,-1.86
2023-02-12T03:56:55.277Z,-1.73
2023-02-12T03:59:24.117Z,-1.71
2023-02-12T04:01:53.607Z,-1.88
2023-02-12T04:04:21.439Z,-1.80
2023-02-12T04:06:50.620Z,-1.81
2023-02-12T04:09:18.655Z,-1.92
2023-02-12T04:12:03.873Z,-1.85
2023-02-12T04:15:07.999Z,-1.87
2023-02-12T04:17:50.457Z,-1.91
2023-02-12T04:20:30.306Z,-1.93
2023-02-12T04:23:02.915Z,-1.96
2023-02-12T04:25:44.810Z,-1.99
2023-02-12T04:28:48.420Z,-2.06
2023-02-12T04:31:30.418Z,-2.11
2023-02-12T04:34:24.778Z,-2.21
2023-02-12T04:37:02.376Z,-2.57
2023-02-12T04:39:32.950Z,-2.29
2023-02-12T04:42:01.265Z,-2.23
2023-02-12T04:44:31.905Z,-2.19
2023-02-12T04:46:59.029Z,-2.21
2023-02-12T04:49:27.653Z,-2.24
2023-02-12T04:51:54.911Z,-2.21
2023-02-12T04:54:23.497Z,-2.23
2023-02-12T04:56:51.120Z,-2.26
2023-02-12T04:59:18.171Z,-2.29
2023-02-12T05:01:45.962Z,-2.23
2023-02-12T05:04:15.838Z,-2.26
2023-02-12T05:06:44.571Z,-2.75
2023-02-12T05:09:17.972Z,-2.35
2023-02-12T05:11:45.073Z,-2.22
2023-02-12T05:14:12.539Z,-2.43
2023-02-12T05:16:40.034Z,-2.29
2023-02-12T05:19:09.715Z,-2.36
2023-02-12T05:21:38.221Z,-2.59
2023-02-12T05:24:05.794Z,-2.40
2023-02-12T05:26:32.952Z,-2.45
2023-02-12T05:28:59.988Z,-2.81
2023-02-12T05:31:27.535Z,-2.31
2023-02-12T05:33:54.708Z,-2.33
2023-02-12T05:36:23.764Z,-2.39
2023-02-12T05:38:52.045Z,-2.30
2023-02-12T05:41:21.709Z,-2.35
2023-02-12T05:43:50.145Z,-2.26
2023-02-12T05:46:18.845Z,-2.33
2023-02-12T05:48:46.574Z,-2.33
2023-02-12T05:51:21.887Z,-2.33
2023-02-12T05:53:50.570Z,-2.19
2023-02-12T05:56:20.211Z,-2.33
2023-02-12T05:58:52.063Z,-2.43
2023-02-12T06:01:22.495Z,-2.34
2023-02-12T06:03:49.569Z,-2.22
2023-02-12T06:06:16.729Z,-2.27
2023-02-12T06:08:43.904Z,-2.31
2023-02-12T06:11:14.102Z,-2.62
2023-02-12T06:13:41.434Z,-2.40
2023-02-12T06:16:16.573Z,-2.27
2023-02-12T06:18:43.672Z,-2.25
2023-02-12T06:21:10.730Z,-2.29
2023-02-12T06:23:37.723Z,-2.43
2023-02-12T06:26:04.895Z,-2.42
2023-02-12T06:28:32.082Z,-2.41
2023-02-12T06:30:59.300Z,-2.41
2023-02-12T06:33:26.512Z,-2.39
2023-02-12T06:35:53.788Z,-2.37
2023-02-12T06:38:21.077Z,-2.37
2023-02-12T06:40:48.606Z,-2.37
2023-02-12T06:43:15.607Z,-2.61
2023-02-12T06:45:42.651Z,-2.45
2023-02-12T06:48:09.664Z,-2.41
2023-02-12T06:50:37.348Z,-2.39
2023-02-12T06:53:04.309Z,-2.45
2023-02-12T06:55:31.372Z,-2.37
2023-02-12T06:57:58.360Z,-2.52
2023-02-12T07:00:25.425Z,-2.42
2023-02-12T07:02:54.682Z,-2.37
2023-02-12T07:05:22.560Z,-2.53
2023-02-12T07:07:49.674Z,-2.45
2023-02-12T07:10:17.807Z,-2.42
2023-02-12T07:12:45.328Z,-2.51
2023-02-12T07:15:13.106Z,-2.48
2023-02-12T07:17:40.136Z,-2.46
2023-02-12T07:20:07.838Z,-2.41
2023-02-12T07:22:38.159Z,-2.41
2023-02-12T07:25:05.505Z,-2.45
2023-02-12T07:27:32.536Z,-2.44
2023-02-12T07:29:59.514Z,-2.43
2023-02-12T07:32:26.542Z,-2.41
2023-02-12T07:34:53.504Z,-2.39
2023-02-12T07:37:22.850Z,-2.37
2023-02-12T07:39:50.169Z,-2.41
2023-02-12T07:42:18.513Z,-2.41
2023-02-12T07:44:49.628Z,-2.23
2023-02-12T07:47:17.036Z,-2.27
2023-02-12T07:49:44.097Z,-2.28
2023-02-12T07:52:13.352Z,-2.62
2023-02-12T07:54:40.972Z,-2.25
2023-02-12T07:57:08.013Z,-2.23
2023-02-12T07:59:35.061Z,-2.24
2023-02-12T08:02:02.279Z,-2.31
2023-02-12T08:04:29.444Z,-2.33
2023-02-12T08:06:57.027Z,-2.34
2023-02-12T08:09:26.998Z,-2.29
2023-02-12T08:11:54.073Z,-2.12
2023-02-12T08:14:22.290Z,-2.21
2023-02-12T08:16:50.395Z,-2.29
2023-02-12T08:19:22.515Z,-2.28
2023-02-12T08:21:53.804Z,-2.19
2023-02-12T08:24:22.340Z,-2.30
2023-02-12T08:26:49.682Z,-2.06
2023-02-12T08:29:19.431Z,-2.05
2023-02-12T08:31:49.110Z,-1.96
2023-02-12T08:34:19.627Z,-1.87
2023-02-12T08:36:48.041Z,-1.84
2023-02-12T08:39:15.865Z,-1.76
2023-02-12T08:41:42.861Z,-1.49
2023-02-12T08:44:10.904Z,-1.50
2023-02-12T08:46:40.203Z,-1.45
2023-02-12T08:49:11.602Z,-1.35
2023-02-12T08:51:41.614Z,-1.35
2023-02-12T08:54:12.522Z,-1.40
2023-02-12T08:56:40.474Z,-1.61
2023-02-12T08:59:08.525Z,-1.63
2023-02-12T09:01:41.940Z,-1.56
2023-02-12T09:04:29.625Z,-1.53
2023-02-12T09:06:57.036Z,-1.41
2023-02-12T09:09:24.778Z,-1.44
2023-02-12T09:11:51.888Z,-1.52
2023-02-12T09:14:24.435Z,-1.58
2023-02-12T09:16:53.357Z,-1.33
2023-02-12T09:19:20.965Z,-1.17
2023-02-12T09:21:53.987Z,-1.50
2023-02-12T09:24:22.417Z,-0.93
2023-02-12T09:26:49.415Z,-0.80
2023-02-12T09:29:16.466Z,-0.83
2023-02-12T09:31:43.598Z,-0.80
2023-02-12T09:34:13.146Z,-0.78
2023-02-12T09:36:41.336Z,-0.67
2023-02-12T09:39:08.343Z,-0.64
2023-02-12T09:41:46.071Z,-0.65
2023-02-12T09:44:54.532Z,-0.56
2023-02-12T09:47:26.731Z,-0.39
2023-02-12T09:50:27.218Z,-0.32
2023-02-12T09:52:59.315Z,-0.13
2023-02-12T09:55:31.829Z,0.08
2023-02-12T09:58:03.943Z,-0.11
2023-02-12T10:00:32.791Z,-0.11
2023-02-12T10:03:13.354Z,-0.56
2023-02-12T10:06:02.417Z,-0.17
2023-02-12T10:08:52.338Z,-0.28
2023-02-12T10:11:22.258Z,-0.41
2023-02-12T10:14:19.704Z,-0.43
2023-02-12T10:17:07.138Z,-0.22
2023-02-12T10:20:22.277Z,-0.05
2023-02-12T10:23:17.109Z,-0.17
2023-02-12T10:25:58.334Z,-0.14
2023-02-12T10:28:28.158Z,-0.31
2023-02-12T10:31:00.788Z,-0.32
2023-02-12T10:33:43.645Z,-0.15
2023-02-12T10:36:32.632Z,-0.12
2023-02-12T10:39:07.220Z,-0.13
2023-02-12T10:41:45.133Z,0.02
2023-02-12T10:44:12.528Z,0.24
2023-02-12T10:46:39.631Z,0.74
2023-02-12T10:49:08.978Z,1.36
2023-02-12T10:51:57.737Z,1.44
2023-02-12T10:54:41.689Z,1.49
2023-02-12T10:57:21.018Z,1.41
2023-02-12T10:59:52.673Z,1.51
2023-02-12T11:02:23.120Z,1.59
2023-02-12T11:04:51.154Z,1.26
2023-02-12T11:07:18.587Z,1.73
2023-02-12T11:09:48.101Z,1.63
2023-02-12T11:12:19.736Z,2.14
2023-02-12T11:14:55.468Z,2.57
2023-02-12T11:17:37.537Z,2.55
2023-02-12T11:20:17.006Z,2.39
2023-02-12T11:22:56.165Z,2.61
2023-02-12T11:25:25.838Z,2.50
2023-02-12T11:28:16.285Z,2.61
2023-02-12T11:31:15.794Z,2.91
2023-02-12T11:33:43.057Z,2.78
2023-02-12T11:36:26.055Z,2.36
2023-02-12T11:38:57.803Z,1.76
2023-02-12T11:41:34.713Z,0.88
2023-02-12T11:44:09.532Z,0.76
2023-02-12T11:46:36.663Z,0.48
2023-02-12T11:49:06.654Z,0.60
2023-02-12T11:51:33.929Z,0.68
2023-02-12T11:54:03.768Z,0.62
2023-02-12T11:56:43.709Z,0.73
2023-02-12T11:59:37.189Z,0.83
2023-02-12T12:02:30.602Z,0.71
2023-02-12T12:05:18.893Z,0.63
2023-02-12T12:07:55.924Z,0.49
2023-02-12T12:10:28.758Z,0.53
2023-02-12T12:12:59.938Z,0.46
2023-02-12T12:15:50.440Z,0.22
2023-02-12T12:18:51.199Z,0.12
2023-02-12T12:21:31.034Z,-0.05
2023-02-12T12:24:07.654Z,-0.34
2023-02-12T12:26:35.035Z,-0.59
2023-02-12T12:29:33.640Z,-0.71
2023-02-12T12:32:03.890Z,-0.87
2023-02-12T12:34:34.847Z,-1.13
2023-02-12T12:37:26.860Z,-1.09
2023-02-12T12:40:27.958Z,-1.12
2023-02-12T12:43:22.764Z,-1.15
2023-02-12T12:46:57.473Z,-1.31
2023-02-12T12:49:45.660Z,-1.51
2023-02-12T12:52:37.036Z,-1.66
2023-02-12T12:55:22.377Z,-1.68
2023-02-12T12:57:52.387Z,-1.77
2023-02-12T13:00:25.646Z,-1.79
2023-02-12T13:03:14.194Z,-1.71
2023-02-12T13:05:48.333Z,-1.78
2023-02-12T13:08:44.605Z,-1.78
2023-02-12T13:11:33.640Z,-1.81
2023-02-12T13:14:29.845Z,-1.72
2023-02-12T13:17:32.065Z,-1.79
2023-02-12T13:20:11.798Z,-1.70
2023-02-12T13:23:01.701Z,-1.73
2023-02-12T13:25:28.751Z,-1.79
2023-02-12T13:27:57.610Z,-1.90
2023-02-12T13:30:48.668Z,-1.90
2023-02-12T13:33:21.942Z,-2.01
2023-02-12T13:35:54.128Z,-1.91
2023-02-12T13:38:27.394Z,-1.87
2023-02-12T13:41:00.159Z,-1.98
2023-02-12T13:43:30.316Z,-2.10
2023-02-12T13:46:09.515Z,-2.07
2023-02-12T13:48:57.831Z,-2.15
2023-02-12T13:51:32.524Z,-2.35
2023-02-12T13:54:22.843Z,-2.58
2023-02-12T13:56:53.596Z,-2.35
2023-02-12T13:59:35.584Z,-2.29
2023-02-12T14:02:04.190Z,-2.34
2023-02-12T14:04:34.133Z,-2.43
2023-02-12T14:07:06.831Z,-2.47
2023-02-12T14:09:38.486Z,-2.53
2023-02-12T14:12:09.250Z,-2.60
2023-02-12T14:14:44.891Z,-2.60
2023-02-12T14:17:30.924Z,-2.63
2023-02-12T14:20:27.746Z,-2.65
2023-02-12T14:23:18.112Z,-2.76
2023-02-12T14:26:05.518Z,-2.85
2023-02-12T14:28:47.500Z,-2.92
2023-02-12T14:31:21.041Z,-3.03
2023-02-12T14:34:08.323Z,-3.04
2023-02-12T14:36:39.164Z,-3.13
2023-02-12T14:39:29.722Z,-3.16
2023-02-12T14:42:16.622Z,-3.22
2023-02-12T14:44:44.644Z,-3.73
2023-02-12T14:47:14.569Z,-3.35
2023-02-12T14:49:48.777Z,-3.38
2023-02-12T14:52:21.637Z,-3.46
2023-02-12T14:54:59.645Z,-3.45
2023-02-12T14:57:31.494Z,-3.86
2023-02-12T15:00:02.223Z,-3.53
2023-02-12T15:02:36.618Z,-3.55
2023-02-12T15:05:19.253Z,-3.56
2023-02-12T15:07:55.794Z,-3.60
2023-02-12T15:10:30.309Z,-3.66
2023-02-12T15:13:26.245Z,-3.60
2023-02-12T15:16:00.251Z,-3.75
2023-02-12T15:18:41.964Z,-3.71
2023-02-12T15:21:28.087Z,-3.80
2023-02-12T15:24:08.599Z,-4.20
2023-02-12T15:26:48.729Z,-3.76
2023-02-12T15:29:22.507Z,-3.94
2023-02-12T15:31:56.775Z,-3.96
2023-02-12T15:34:28.080Z,-3.91
2023-02-12T15:37:00.992Z,-3.95
2023-02-12T15:39:39.381Z,-3.92
2023-02-12T15:42:37.943Z,-4.00
2023-02-12T15:45:31.143Z,-4.36
2023-02-12T15:48:01.161Z,-3.92
2023-02-12T15:50:30.248Z,-3.93
2023-02-12T15:52:57.638Z,-4.00
2023-02-12T15:55:28.536Z,-3.98
2023-02-12T15:57:58.372Z,-4.01
2023-02-12T16:00:49.034Z,-4.06
2023-02-12T16:03:26.587Z,-4.11
2023-02-12T16:05:58.629Z,-4.15
2023-02-12T16:08:25.969Z,-4.09
2023-02-12T16:10:54.903Z,-4.13
2023-02-12T16:13:33.291Z,-4.30
2023-02-12T16:16:16.055Z,-4.15
2023-02-12T16:18:44.260Z,-4.17
2023-02-12T16:21:14.039Z,-4.19
2023-02-12T16:23:45.653Z,-4.38
2023-02-12T16:26:22.492Z,-4.47
2023-02-12T16:28:54.377Z,-4.34
2023-02-12T16:31:24.764Z,-4.40
2023-02-12T16:33:56.234Z,-4.74
2023-02-12T16:36:23.260Z,-4.33
2023-02-12T16:38:51.459Z,-4.30
2023-02-12T16:41:18.452Z,-4.32
2023-02-12T16:43:47.978Z,-4.35
2023-02-12T16:46:18.002Z,-4.53
2023-02-12T16:48:51.846Z,-4.52
2023-02-12T16:51:33.168Z,-4.38
2023-02-12T16:54:02.352Z,-4.49
2023-02-12T16:56:34.317Z,-4.42
2023-02-12T16:59:02.166Z,-4.44
2023-02-12T17:01:33.538Z,-4.48
2023-02-12T17:04:04.439Z,-4.50
2023-02-12T17:06:32.542Z,-4.54
2023-02-12T17:09:00.550Z,-4.54
2023-02-12T17:11:29.196Z,-4.54
2023-02-12T17:13:56.911Z,-4.66
2023-02-12T17:16:32.301Z,-4.65
2023-02-12T17:19:00.723Z,-4.53
2023-02-12T17:21:38.041Z,-4.71
2023-02-12T17:24:06.607Z,-4.72
2023-02-12T17:26:33.664Z,-4.56
2023-02-12T17:29:05.521Z,-4.69
2023-02-12T17:31:33.944Z,-4.54
2023-02-12T17:34:01.333Z,-4.58
2023-02-12T17:36:28.502Z,-4.61
2023-02-12T17:38:55.562Z,-4.50
2023-02-12T17:41:22.716Z,-4.48
2023-02-12T17:43:49.729Z,-4.49
2023-02-12T17:46:21.412Z,-4.60
2023-02-12T17:48:48.536Z,-4.47
2023-02-12T17:51:15.969Z,-4.52
2023-02-12T17:53:43.512Z,-4.51
2023-02-12T17:56:15.893Z,-4.47
2023-02-12T17:58:44.153Z,-4.47
2023-02-12T18:01:14.605Z,-4.45
2023-02-12T18:03:41.902Z,-4.46
2023-02-12T18:06:09.570Z,-4.46
2023-02-12T18:08:36.630Z,-5.39
2023-02-12T18:11:08.072Z,-4.47
2023-02-12T18:13:35.094Z,-4.56
2023-02-12T18:16:06.234Z,-4.43
2023-02-12T18:18:34.810Z,-4.44
2023-02-12T18:21:02.267Z,-4.43
2023-02-12T18:23:29.272Z,-4.55
2023-02-12T18:25:56.300Z,-4.38
2023-02-12T18:28:23.411Z,-4.51
2023-02-12T18:30:56.542Z,-4.30
2023-02-12T18:33:24.308Z,-4.29
2023-02-12T18:36:07.039Z,-4.26
2023-02-12T18:38:35.967Z,-4.35
2023-02-12T18:41:13.520Z,-4.36
2023-02-12T18:43:40.670Z,-4.40
2023-02-12T18:46:13.220Z,-4.43
2023-02-12T18:48:40.605Z,-4.49
2023-02-12T18:51:09.330Z,-4.53
2023-02-12T18:53:36.808Z,-4.79
2023-02-12T18:56:06.156Z,-4.45
2023-02-12T18:58:33.584Z,-4.62
2023-02-12T19:01:00.960Z,-4.79
2023-02-12T19:03:28.108Z,-4.43
2023-02-12T19:06:03.987Z,-4.47
2023-02-12T19:08:31.298Z,-4.45
2023-02-12T19:10:58.703Z,-4.38
2023-02-12T19:13:25.888Z,-4.52
2023-02-12T19:15:53.396Z,-4.38
2023-02-12T19:18:20.440Z,-4.46
2023-02-12T19:20:47.431Z,-4.56
2023-02-12T19:23:14.453Z,-4.44
2023-02-12T19:25:45.350Z,-4.85
2023-02-12T19:28:13.320Z,-4.60
2023-02-12T19:30:41.413Z,-4.38
2023-02-12T19:33:08.885Z,-4.51
2023-02-12T19:35:35.875Z,-4.33
2023-02-12T19:38:03.144Z,-4.42
2023-02-12T19:40:30.154Z,-4.35
2023-02-12T19:42:57.151Z,-4.44
2023-02-12T19:45:24.203Z,-4.60
2023-02-12T19:47:51.892Z,-4.36
2023-02-12T19:50:19.080Z,-4.34
2023-02-12T19:52:46.079Z,-4.35
2023-02-12T19:55:13.116Z,-4.35
2023-02-12T19:57:41.224Z,-4.43
2023-02-12T20:00:09.072Z,-4.43
2023-02-12T20:02:36.269Z,-4.49
2023-02-12T20:05:03.312Z,-4.47
2023-02-12T20:07:31.402Z,-4.51
2023-02-12T20:09:58.399Z,-4.53
2023-02-12T20:12:25.423Z,-4.55
2023-02-12T20:14:54.727Z,-4.60
2023-02-12T20:17:21.802Z,-4.61
2023-02-12T20:19:48.826Z,-4.61
2023-02-12T20:22:15.884Z,-4.61
2023-02-12T20:24:42.892Z,-4.86
2023-02-12T20:27:11.202Z,-4.64
2023-02-12T20:29:38.305Z,-4.67
2023-02-12T20:32:05.507Z,-4.78
2023-02-12T20:34:39.742Z,-4.74
2023-02-12T20:37:17.327Z,-4.73
2023-02-12T20:39:44.430Z,-4.77
2023-02-12T20:42:12.455Z,-4.87
2023-02-12T20:44:39.484Z,-4.81
2023-02-12T20:47:06.481Z,-4.78
2023-02-12T20:49:33.570Z,-4.81
2023-02-12T20:52:00.580Z,-4.83
2023-02-12T20:54:27.594Z,-5.31
2023-02-12T20:56:54.697Z,-4.83
2023-02-12T20:59:21.795Z,-5.29
2023-02-12T21:01:49.044Z,-4.89
2023-02-12T21:04:17.890Z,-5.07
2023-02-12T21:06:46.024Z,-5.00
2023-02-12T21:09:14.409Z,-4.98
2023-02-12T21:11:45.340Z,-4.87
2023-02-12T21:14:23.624Z,-4.91
2023-02-12T21:16:53.877Z,-4.96
2023-02-12T21:19:21.507Z,-4.92
2023-02-12T21:21:48.583Z,-4.89
2023-02-12T21:24:21.884Z,-4.95
2023-02-12T21:26:49.808Z,-4.96
2023-02-12T21:29:17.284Z,-4.96
2023-02-12T21:31:46.585Z,-4.98
2023-02-12T21:34:21.054Z,-4.99
2023-02-12T21:36:49.698Z,-5.03
2023-02-12T21:39:27.321Z,-4.98
2023-02-12T21:41:57.320Z,-5.02
2023-02-12T21:44:25.207Z,-5.34
2023-02-12T21:46:52.754Z,-5.01
2023-02-12T21:49:28.279Z,-5.02
2023-02-12T21:52:02.356Z,-5.17
2023-02-12T21:54:30.577Z,-5.16
2023-02-12T21:56:58.453Z,-5.21
2023-02-12T21:59:26.657Z,-5.15
2023-02-12T22:01:56.275Z,-5.50
2023-02-12T22:04:23.309Z,-5.05
2023-02-12T22:06:52.677Z,-5.13
2023-02-12T22:09:21.893Z,-5.34
2023-02-12T22:11:49.196Z,-5.17
2023-02-12T22:14:17.999Z,-5.48
2023-02-12T22:16:45.546Z,-5.17
2023-02-12T22:19:12.644Z,-5.25
2023-02-12T22:21:41.593Z,-5.15
2023-02-12T22:24:11.291Z,-5.16
2023-02-12T22:26:38.388Z,-5.27
2023-02-12T22:29:07.744Z,-5.31
2023-02-12T22:31:37.020Z,-5.20
2023-02-12T22:34:11.301Z,-5.33
2023-02-12T22:36:39.650Z,-5.35
2023-02-12T22:39:07.056Z,-5.43
2023-02-12T22:41:34.613Z,-5.31
2023-02-12T22:44:05.188Z,-5.32
2023-02-12T22:46:33.292Z,-5.36
2023-02-12T22:49:00.555Z,-5.46
2023-02-12T22:51:30.421Z,-5.56
2023-02-12T22:53:57.563Z,-5.37
2023-02-12T22:56:25.344Z,-5.42
2023-02-12T22:58:58.200Z,-5.46
2023-02-12T23:01:27.127Z,-5.45
2023-02-12T23:03:54.875Z,-5.38
2023-02-12T23:06:24.055Z,-5.55
2023-02-12T23:08:53.195Z,-5.69
2023-02-12T23:11:21.058Z,-5.57
2023-02-12T23:13:48.242Z,-5.62
2023-02-12T23:16:15.264Z,-5.46
2023-02-12T23:18:43.724Z,-5.46
2023-02-12T23:21:10.786Z,-5.50
2023-02-12T23:23:37.762Z,-5.97
2023-02-12T23:26:04.991Z,-5.48
2023-02-12T23:28:32.456Z,-5.69
2023-02-12T23:30:59.940Z,-5.94
2023-02-12T23:33:27.272Z,-5.59
2023-02-12T23:35:54.245Z,-5.53
2023-02-12T23:38:22.625Z,-5.62
2023-02-12T23:40:49.656Z,-5.51
2023-02-12T23:43:16.718Z,-5.54
2023-02-12T23:45:44.882Z,-5.56
2023-02-12T23:48:12.652Z,-5.52
2023-02-12T23:50:40.326Z,-5.54
2023-02-12T23:53:07.886Z,-5.58
2023-02-12T23:55:36.731Z,-5.60
2023-02-12T23:58:04.900Z,-5.61
